Time;durP1;ratioP1;P1;durP2;ratioP2;P2;SDS_P1;SDS_P2;PMS_P1;PMS_P2;Temp;Humidity;BMP_temperature;BMP_pressure;BME280_temperature;BME280_humidity;BME280_pressure;Samples;Min_cycle;Max_cycle;Signal;HPM_P1;HPM_P2
2022/05/31 00:02:23;;;;;;;6.50;5.37;;;8.80;99.90;;;;;;5035477;28;20207;-79
2022/05/31 00:04:51;;;;;;;8.37;6.07;;;8.80;99.90;;;;;;5034480;28;20202;-75
2022/05/31 00:07:21;;;;;;;6.93;5.40;;;8.80;99.90;;;;;;5034974;28;20207;-61
2022/05/31 00:09:48;;;;;;;7.37;5.80;;;8.80;99.90;;;;;;5035687;28;20247;-60
2022/05/31 00:12:15;;;;;;;7.77;5.93;;;8.80;99.90;;;;;;5034927;28;20234;-72
2022/05/31 00:14:43;;;;;;;6.93;5.53;;;8.80;99.90;;;;;;5034463;28;20291;-61
2022/05/31 00:17:10;;;;;;;8.40;6.17;;;8.80;99.90;;;;;;5034509;28;20210;-61
2022/05/31 00:19:37;;;;;;;8.63;6.10;;;8.80;99.90;;;;;;5033595;28;20202;-60
2022/05/31 00:22:19;;;;;;;8.23;5.97;;;8.80;99.90;;;;;;5034017;28;20203;-60
2022/05/31 00:24:46;;;;;;;8.77;6.00;;;8.80;99.90;;;;;;5033862;28;20223;-61
2022/05/31 00:27:17;;;;;;;9.50;6.00;;;8.80;99.90;;;;;;5034471;28;20298;-60
2022/05/31 00:29:45;;;;;;;9.20;6.30;;;8.70;99.90;;;;;;5034218;28;20256;-61
2022/05/31 00:32:14;;;;;;;7.50;6.20;;;8.70;99.90;;;;;;5034107;28;20297;-61
2022/05/31 00:34:44;;;;;;;8.20;6.30;;;8.70;99.90;;;;;;5034000;28;20234;-61
2022/05/31 00:37:12;;;;;;;6.90;5.73;;;8.70;99.90;;;;;;5033866;28;20205;-61
2022/05/31 00:39:39;;;;;;;8.63;5.87;;;8.70;99.90;;;;;;5034230;28;20272;-61
2022/05/31 00:42:14;;;;;;;8.33;6.37;;;8.70;99.90;;;;;;5034598;28;20203;-60
2022/05/31 00:44:41;;;;;;;8.63;6.30;;;8.80;99.90;;;;;;5033843;28;20298;-61
2022/05/31 00:47:24;;;;;;;8.97;5.90;;;8.70;99.90;;;;;;5033930;28;20209;-69
2022/05/31 00:49:53;;;;;;;8.77;6.00;;;8.70;99.90;;;;;;5033366;28;20265;-65
2022/05/31 00:52:33;;;;;;;8.00;6.40;;;8.70;99.90;;;;;;5017373;28;20209;-61
2022/05/31 00:55:16;;;;;;;7.70;5.73;;;8.70;99.90;;;;;;5034502;28;20274;-61
2022/05/31 00:58:11;;;;;;;7.47;5.97;;;8.70;99.90;;;;;;5034910;28;20202;-61
2022/05/31 01:00:39;;;;;;;7.80;6.07;;;8.70;99.90;;;;;;5016902;28;20199;-62
2022/05/31 01:03:08;;;;;;;8.27;5.77;;;8.70;99.90;;;;;;5033396;28;20205;-62
2022/05/31 01:05:35;;;;;;;7.73;6.10;;;8.70;99.90;;;;;;5034690;28;20221;-61
2022/05/31 01:08:03;;;;;;;7.57;6.30;;;8.60;99.90;;;;;;5033211;28;20202;-72
2022/05/31 01:10:30;;;;;;;8.00;6.07;;;8.60;99.90;;;;;;5033447;28;20215;-64
2022/05/31 01:12:58;;;;;;;8.40;6.67;;;8.60;99.90;;;;;;5033448;28;20214;-62
2022/05/31 01:15:24;;;;;;;8.87;6.57;;;8.70;99.90;;;;;;5033539;28;20294;-63
2022/05/31 01:17:51;;;;;;;9.13;6.50;;;8.60;99.90;;;;;;5033221;28;20213;-73
2022/05/31 01:20:21;;;;;;;9.40;6.50;;;8.60;99.90;;;;;;5016151;28;20352;-72
2022/05/31 01:22:57;;;;;;;8.30;6.60;;;8.60;99.90;;;;;;5033305;28;20209;-74
2022/05/31 01:25:43;;;;;;;9.60;6.90;;;8.50;99.90;;;;;;5032964;28;20661;-61
2022/05/31 01:28:27;;;;;;;9.23;6.80;;;8.50;99.90;;;;;;5033030;28;20668;-73
2022/05/31 01:31:02;;;;;;;11.20;6.87;;;8.50;99.90;;;;;;5033223;28;20297;-79
2022/05/31 01:33:50;;;;;;;10.43;6.70;;;8.50;99.90;;;;;;5032770;28;20196;-61
2022/05/31 01:36:33;;;;;;;10.57;7.03;;;8.50;99.90;;;;;;5032848;28;20238;-75
2022/05/31 01:39:01;;;;;;;8.77;7.30;;;8.50;99.90;;;;;;5033108;28;20699;-75
2022/05/31 01:41:34;;;;;;;14.37;7.20;;;8.50;99.90;;;;;;5032795;28;20232;-76
2022/05/31 01:44:04;;;;;;;12.30;7.50;;;8.40;99.90;;;;;;5032778;28;20300;-77
2022/05/31 01:46:33;;;;;;;9.77;7.13;;;8.40;99.90;;;;;;5033003;28;20241;-74
2022/05/31 01:49:07;;;;;;;9.47;7.37;;;8.40;99.90;;;;;;5032307;28;20589;-76
2022/05/31 01:51:37;;;;;;;8.67;6.97;;;8.40;99.90;;;;;;5032913;28;20206;-61
2022/05/31 01:54:04;;;;;;;10.37;7.10;;;8.40;99.90;;;;;;5032402;28;20294;-62
2022/05/31 01:56:31;;;;;;;9.53;7.13;;;8.40;99.90;;;;;;5033833;28;20566;-64
2022/05/31 01:58:59;;;;;;;10.47;7.20;;;8.40;99.90;;;;;;5032440;28;20575;-61
2022/05/31 02:01:28;;;;;;;11.20;7.40;;;8.40;99.90;;;;;;5032384;28;20203;-60
2022/05/31 02:03:55;;;;;;;10.13;7.40;;;8.40;99.90;;;;;;5032440;28;20209;-60
2022/05/31 02:06:23;;;;;;;11.90;7.70;;;8.40;99.90;;;;;;5032102;28;20299;-66
2022/05/31 02:08:51;;;;;;;10.53;7.57;;;8.40;99.90;;;;;;5033929;28;20625;-66
2022/05/31 02:11:18;;;;;;;11.40;7.13;;;8.40;99.90;;;;;;5032276;28;20584;-81
2022/05/31 02:13:45;;;;;;;12.43;8.50;;;8.40;99.90;;;;;;5032301;28;20726;-79
2022/05/31 02:16:13;;;;;;;8.90;7.67;;;8.40;99.90;;;;;;5040149;28;20294;-81
2022/05/31 02:21:25;;;;;;;9.70;7.27;;;8.50;99.90;;;;;;5035574;28;20219;-75
2022/05/31 02:23:52;;;;;;;9.83;7.87;;;8.40;99.90;;;;;;5032285;28;20261;-81
2022/05/31 02:26:19;;;;;;;11.50;7.90;;;8.50;99.90;;;;;;5032166;28;20298;-80
2022/05/31 02:28:46;;;;;;;11.13;7.77;;;8.50;99.90;;;;;;5031914;28;20730;-62
2022/05/31 02:31:13;;;;;;;10.33;8.00;;;8.40;99.90;;;;;;5032270;28;20202;-63
2022/05/31 02:33:40;;;;;;;8.87;7.60;;;8.40;99.90;;;;;;5032072;28;20214;-61
2022/05/31 02:36:07;;;;;;;9.60;7.60;;;8.40;99.90;;;;;;5032178;28;20197;-65
2022/05/31 02:38:34;;;;;;;10.43;7.90;;;8.40;99.90;;;;;;5032057;28;20203;-61
2022/05/31 02:41:01;;;;;;;9.67;7.50;;;8.40;99.90;;;;;;5033289;28;20195;-61
2022/05/31 02:43:27;;;;;;;11.00;8.00;;;8.40;99.90;;;;;;5032768;28;20237;-61
2022/05/31 02:45:55;;;;;;;10.43;7.70;;;8.40;99.90;;;;;;5036019;28;20553;-61
2022/05/31 02:48:22;;;;;;;9.13;7.50;;;8.50;99.90;;;;;;5036026;28;20683;-61
2022/05/31 02:50:49;;;;;;;12.17;7.90;;;8.40;99.90;;;;;;5035683;28;20237;-61
2022/05/31 02:53:16;;;;;;;11.43;7.73;;;8.50;99.90;;;;;;5035834;28;20209;-61
2022/05/31 02:55:44;;;;;;;9.67;7.73;;;8.40;99.90;;;;;;5036922;28;20277;-61
2022/05/31 02:58:11;;;;;;;10.20;7.43;;;8.50;99.90;;;;;;5035837;28;20296;-62
2022/05/31 03:00:38;;;;;;;9.73;7.83;;;8.50;99.90;;;;;;5035919;28;20712;-62
2022/05/31 03:03:05;;;;;;;10.03;7.87;;;8.50;99.90;;;;;;5035691;28;20645;-62
2022/05/31 03:05:33;;;;;;;10.33;7.70;;;8.50;99.90;;;;;;5035749;28;20206;-61
2022/05/31 03:07:59;;;;;;;10.33;7.80;;;8.50;99.90;;;;;;5035648;28;20211;-61
2022/05/31 03:10:33;;;;;;;11.10;8.30;;;8.50;99.90;;;;;;5035514;28;20317;-66
2022/05/31 03:13:01;;;;;;;10.87;7.60;;;8.50;99.90;;;;;;5036013;28;20547;-63
2022/05/31 03:15:30;;;;;;;13.03;8.27;;;8.60;99.90;;;;;;5035353;28;20207;-61
2022/05/31 03:18:14;;;;;;;13.07;7.87;;;8.60;99.90;;;;;;5035718;28;20290;-68
2022/05/31 03:20:47;;;;;;;21.23;9.60;;;8.60;99.90;;;;;;5035161;28;20231;-61
2022/05/31 03:23:20;;;;;;;10.47;8.00;;;8.60;99.90;;;;;;5035012;28;20230;-61
2022/05/31 03:25:49;;;;;;;10.30;8.07;;;8.50;99.90;;;;;;5035382;28;20633;-61
2022/05/31 03:28:18;;;;;;;10.13;7.40;;;8.50;99.90;;;;;;5036583;28;20609;-61
2022/05/31 03:30:45;;;;;;;10.37;7.70;;;8.50;99.90;;;;;;5036630;28;20227;-62
2022/05/31 03:33:13;;;;;;;11.20;8.13;;;8.60;99.90;;;;;;5035575;28;20609;-61
2022/05/31 03:35:41;;;;;;;11.33;7.73;;;8.60;99.90;;;;;;5035016;28;20200;-62
2022/05/31 03:38:08;;;;;;;11.60;7.90;;;8.60;99.90;;;;;;5035194;28;20635;-61
2022/05/31 03:43:21;;;;;;;10.27;7.87;;;8.70;99.90;;;;;;5035171;28;20286;-61
2022/05/31 03:45:48;;;;;;;9.83;7.83;;;8.70;99.90;;;;;;5035047;28;20238;-61
2022/05/31 03:48:15;;;;;;;9.70;7.70;;;8.70;99.90;;;;;;5034969;28;20207;-62
2022/05/31 03:50:42;;;;;;;9.20;7.67;;;8.70;99.90;;;;;;5034595;28;20281;-62
2022/05/31 03:53:10;;;;;;;9.73;7.40;;;8.80;99.90;;;;;;5034766;28;20297;-61
2022/05/31 03:55:39;;;;;;;10.23;7.60;;;8.90;99.90;;;;;;5034704;28;20219;-61
2022/05/31 03:58:07;;;;;;;14.67;7.57;;;8.90;99.90;;;;;;5034828;28;20187;-66
2022/05/31 04:00:34;;;;;;;10.57;7.10;;;9.00;99.90;;;;;;5035997;28;20266;-62
2022/05/31 04:03:01;;;;;;;11.53;7.60;;;9.10;99.90;;;;;;5034677;28;20290;-61
2022/05/31 04:05:28;;;;;;;10.60;7.27;;;9.00;99.90;;;;;;5034724;28;20207;-69
2022/05/31 04:08:00;;;;;;;10.67;6.87;;;9.10;99.90;;;;;;5034769;28;20217;-80
2022/05/31 04:10:29;;;;;;;9.17;7.10;;;9.20;99.90;;;;;;5034456;28;20779;-69
2022/05/31 04:12:57;;;;;;;9.97;7.33;;;9.30;99.90;;;;;;5034755;28;20257;-81
2022/05/31 04:15:25;;;;;;;9.90;7.27;;;9.30;99.90;;;;;;5034200;28;20204;-62
2022/05/31 04:17:52;;;;;;;9.80;7.00;;;9.40;99.90;;;;;;5034591;28;20196;-83
2022/05/31 04:20:19;;;;;;;8.77;6.87;;;9.40;99.90;;;;;;5034105;28;20322;-76
2022/05/31 04:22:46;;;;;;;11.20;7.37;;;9.40;99.90;;;;;;5034237;28;20195;-66
2022/05/31 04:25:13;;;;;;;9.47;7.10;;;9.50;99.90;;;;;;5035078;28;20613;-79
2022/05/31 04:27:40;;;;;;;9.13;7.07;;;9.60;99.90;;;;;;5034482;28;20202;-69
2022/05/31 04:30:08;;;;;;;10.50;7.67;;;9.60;99.90;;;;;;5035327;28;20690;-80
2022/05/31 04:32:35;;;;;;;9.37;7.47;;;9.70;99.90;;;;;;5034619;28;20201;-78
2022/05/31 04:35:02;;;;;;;9.30;7.00;;;9.80;99.90;;;;;;5036237;28;20298;-60
2022/05/31 04:37:29;;;;;;;10.03;6.70;;;9.80;99.90;;;;;;5034251;28;20206;-73
2022/05/31 04:39:56;;;;;;;9.43;6.53;;;9.90;99.90;;;;;;5035383;28;20564;-69
2022/05/31 04:42:23;;;;;;;9.43;7.23;;;9.90;99.90;;;;;;5034020;28;20283;-61
2022/05/31 04:44:52;;;;;;;10.77;6.87;;;10.10;99.90;;;;;;5033649;28;20302;-72
2022/05/31 04:47:19;;;;;;;8.20;6.60;;;10.10;99.90;;;;;;5033725;28;20283;-61
2022/05/31 04:49:46;;;;;;;8.30;6.67;;;10.20;99.90;;;;;;5033473;28;20684;-61
2022/05/31 04:52:13;;;;;;;8.83;6.50;;;10.20;99.90;;;;;;5033825;28;20721;-60
2022/05/31 04:54:40;;;;;;;8.37;6.53;;;10.20;99.90;;;;;;5033623;28;20208;-63
2022/05/31 04:57:06;;;;;;;8.97;6.50;;;10.40;99.90;;;;;;5033521;28;20218;-61
2022/05/31 04:59:34;;;;;;;9.83;6.30;;;10.50;99.90;;;;;;5033578;28;20204;-60
2022/05/31 05:02:01;;;;;;;8.13;5.70;;;10.50;99.90;;;;;;5033490;28;20195;-60
2022/05/31 05:04:28;;;;;;;7.90;6.27;;;10.60;99.90;;;;;;5033310;28;20195;-61
2022/05/31 05:06:56;;;;;;;9.40;6.00;;;10.70;99.90;;;;;;5032865;28;20195;-61
2022/05/31 05:09:23;;;;;;;10.50;6.40;;;10.80;99.90;;;;;;5033182;28;20311;-61
2022/05/31 05:11:50;;;;;;;10.20;6.33;;;10.80;99.90;;;;;;5033415;28;20242;-62
2022/05/31 05:14:17;;;;;;;8.53;6.00;;;10.90;99.90;;;;;;5033141;28;20231;-61
2022/05/31 05:16:44;;;;;;;8.57;6.07;;;11.10;99.90;;;;;;5033180;28;20226;-70
2022/05/31 05:19:14;;;;;;;9.60;5.83;;;11.10;99.90;;;;;;5033057;28;20207;-67
2022/05/31 05:21:40;;;;;;;10.20;6.10;;;11.30;99.90;;;;;;5033009;28;20227;-61
2022/05/31 05:24:08;;;;;;;11.17;6.13;;;11.40;99.90;;;;;;5033004;28;20216;-61
2022/05/31 05:26:35;;;;;;;9.07;6.00;;;11.50;99.90;;;;;;5033197;28;20195;-62
2022/05/31 05:31:52;;;;;;;10.00;5.97;;;11.60;99.90;;;;;;5032881;28;20202;-60
2022/05/31 05:34:19;;;;;;;8.33;5.60;;;11.60;99.90;;;;;;5032756;28;20218;-61
2022/05/31 05:36:46;;;;;;;7.57;5.40;;;11.70;99.90;;;;;;5032411;28;20294;-62
2022/05/31 05:39:13;;;;;;;8.57;5.70;;;11.80;99.90;;;;;;5032371;28;20286;-67
2022/05/31 05:41:40;;;;;;;8.73;5.83;;;11.90;99.90;;;;;;5032706;28;20282;-61
2022/05/31 05:44:08;;;;;;;8.87;5.90;;;11.90;99.90;;;;;;5032638;28;20234;-60
2022/05/31 05:46:35;;;;;;;10.20;5.90;;;12.00;99.90;;;;;;5032785;28;20231;-71
2022/05/31 05:49:02;;;;;;;8.93;5.53;;;12.10;99.90;;;;;;5032813;28;20642;-63
2022/05/31 05:51:31;;;;;;;8.30;6.00;;;12.20;99.90;;;;;;5032515;28;20246;-62
2022/05/31 05:54:01;;;;;;;6.63;5.57;;;12.30;99.90;;;;;;5032277;28;20695;-62
2022/05/31 05:56:28;;;;;;;9.70;5.40;;;12.40;99.90;;;;;;5032412;28;20231;-66
2022/05/31 05:58:55;;;;;;;10.73;5.50;;;12.40;99.90;;;;;;5032223;28;20318;-67
2022/05/31 06:01:31;;;;;;;6.57;4.90;;;12.50;99.90;;;;;;5032423;28;20615;-62
2022/05/31 06:04:38;;;;;;;7.77;5.70;;;12.70;99.90;;;;;;5032572;28;20195;-61
2022/05/31 06:07:29;;;;;;;8.50;5.13;;;12.80;99.90;;;;;;5032128;28;20207;-61
2022/05/31 06:10:10;;;;;;;8.57;5.17;;;12.80;99.90;;;;;;5024727;28;20595;-61
2022/05/31 06:12:41;;;;;;;6.57;4.80;;;12.90;99.90;;;;;;5032457;28;20295;-61
2022/05/31 06:15:14;;;;;;;9.30;5.03;;;12.90;99.90;;;;;;5031908;28;20290;-61
2022/05/31 06:17:44;;;;;;;6.83;5.03;;;13.00;99.90;;;;;;5031486;28;20226;-64
2022/05/31 06:20:12;;;;;;;7.97;5.07;;;13.10;99.90;;;;;;5033061;28;20227;-61
2022/05/31 06:22:41;;;;;;;5.83;4.77;;;13.20;99.90;;;;;;5033344;28;20238;-61
2022/05/31 06:25:13;;;;;;;6.30;4.30;;;13.40;99.90;;;;;;5032044;28;20744;-61
2022/05/31 06:27:40;;;;;;;8.23;4.57;;;13.50;99.90;;;;;;5032175;28;20288;-62
2022/05/31 06:30:07;;;;;;;8.63;4.53;;;13.50;99.90;;;;;;5031920;28;20326;-63
2022/05/31 06:32:34;;;;;;;10.83;4.60;;;13.70;99.90;;;;;;5032228;28;20191;-69
2022/05/31 06:35:01;;;;;;;6.00;4.20;;;13.60;99.90;;;;;;5031816;28;20199;-69
2022/05/31 06:37:30;;;;;;;6.93;4.57;;;13.60;99.90;;;;;;5032010;28;20602;-75
2022/05/31 06:39:57;;;;;;;7.33;4.37;;;13.70;99.90;;;;;;5031964;28;20249;-62
2022/05/31 06:42:25;;;;;;;9.23;5.03;;;13.80;99.90;;;;;;5031983;28;20303;-75
2022/05/31 06:44:51;;;;;;;5.50;4.50;;;13.80;99.90;;;;;;5033600;28;20199;-79
2022/05/31 06:47:18;;;;;;;6.20;4.23;;;13.90;99.90;;;;;;5032321;28;20207;-65
2022/05/31 06:49:45;;;;;;;6.87;4.17;;;14.00;99.90;;;;;;5033514;28;20743;-63
2022/05/31 06:57:46;;;;;;;6.17;4.50;;;14.20;99.90;;;;;;5033321;28;20228;-62
2022/05/31 07:00:19;;;;;;;5.83;4.10;;;14.40;99.90;;;;;;5032916;28;20234;-61
2022/05/31 07:02:46;;;;;;;5.53;3.90;;;14.60;99.90;;;;;;5033021;28;20616;-62
2022/05/31 07:05:15;;;;;;;5.60;4.07;;;14.60;99.90;;;;;;5031318;28;20236;-62
2022/05/31 07:07:42;;;;;;;6.00;3.80;;;14.70;99.90;;;;;;5031927;28;20290;-61
2022/05/31 07:10:10;;;;;;;7.57;3.53;;;14.80;99.90;;;;;;5031475;28;20305;-65
2022/05/31 07:12:37;;;;;;;5.10;3.77;;;14.90;99.90;;;;;;5031599;28;20290;-62
2022/05/31 07:15:05;;;;;;;5.00;3.70;;;14.90;99.90;;;;;;5020959;28;20244;-63
2022/05/31 07:17:32;;;;;;;5.60;3.77;;;15.00;99.90;;;;;;5011918;28;20224;-60
2022/05/31 07:19:59;;;;;;;3.67;3.30;;;15.00;99.90;;;;;;5011567;28;20266;-60
2022/05/31 07:22:35;;;;;;;6.70;3.63;;;15.20;99.90;;;;;;5011502;28;20216;-61
2022/05/31 07:25:03;;;;;;;6.73;4.20;;;15.30;99.90;;;;;;4995275;28;20263;-63
2022/05/31 07:27:29;;;;;;;5.67;3.60;;;15.50;99.90;;;;;;5011803;28;20752;-61
2022/05/31 07:29:56;;;;;;;4.13;3.20;;;15.50;99.90;;;;;;5013141;28;20266;-62
2022/05/31 07:32:23;;;;;;;4.37;3.13;;;15.50;99.90;;;;;;5015571;28;20197;-63
2022/05/31 07:35:10;;;;;;;4.23;2.80;;;15.40;99.90;;;;;;5015028;28;20227;-63
2022/05/31 07:37:37;;;;;;;5.63;3.30;;;15.50;99.90;;;;;;5015151;28;20286;-61
2022/05/31 07:40:05;;;;;;;4.60;3.07;;;15.50;99.90;;;;;;5015284;28;20234;-65
2022/05/31 07:42:32;;;;;;;4.87;2.93;;;15.70;99.90;;;;;;5016684;28;20231;-62
2022/05/31 07:44:59;;;;;;;4.13;2.73;;;15.80;99.90;;;;;;5016543;28;20279;-62
2022/05/31 07:47:26;;;;;;;7.60;3.27;;;15.90;99.90;;;;;;5015153;28;20291;-60
2022/05/31 07:49:54;;;;;;;5.27;2.90;;;15.80;99.90;;;;;;5015128;28;20652;-63
2022/05/31 07:52:21;;;;;;;4.23;2.77;;;15.90;99.90;;;;;;5016081;28;20220;-61
2022/05/31 07:54:48;;;;;;;3.30;2.93;;;16.00;99.90;;;;;;5015116;28;20327;-60
2022/05/31 08:00:06;;;;;;;3.27;2.77;;;16.10;99.90;;;;;;4939812;29;20230;-61
2022/05/31 08:02:32;;;;;;;4.20;2.70;;;16.20;99.90;;;;;;4939748;29;20296;-66
2022/05/31 08:05:00;;;;;;;3.50;2.50;;;16.40;99.90;;;;;;4940049;29;20206;-68
2022/05/31 08:07:27;;;;;;;6.27;2.80;;;16.60;99.90;;;;;;4955797;29;20205;-61
2022/05/31 08:09:53;;;;;;;5.50;2.50;;;16.70;99.90;;;;;;4939495;29;20647;-67
2022/05/31 08:12:20;;;;;;;3.00;2.10;;;16.50;99.90;;;;;;4939411;29;20237;-64
2022/05/31 08:14:47;;;;;;;6.77;2.50;;;16.70;99.90;;;;;;4955218;29;20301;-62
2022/05/31 08:17:14;;;;;;;3.63;2.30;;;16.80;99.90;;;;;;4939595;29;20233;-61
2022/05/31 08:19:44;;;;;;;5.17;2.30;;;17.10;99.90;;;;;;4923581;29;20230;-62
2022/05/31 08:22:11;;;;;;;3.73;2.13;;;17.80;99.90;;;;;;4955336;29;20236;-63
2022/05/31 08:24:38;;;;;;;6.33;2.40;;;18.80;99.90;;;;;;4955496;29;20229;-68
2022/05/31 08:27:11;;;;;;;5.53;2.10;;;19.40;99.90;;;;;;4939530;29;20566;-61
2022/05/31 08:29:40;;;;;;;4.67;2.00;;;20.00;99.90;;;;;;4939029;29;20323;-63
2022/05/31 08:32:07;;;;;;;2.87;2.10;;;20.40;99.90;;;;;;4938912;29;20347;-81
2022/05/31 08:34:34;;;;;;;10.03;2.73;;;21.20;99.90;;;;;;4938967;29;20265;-64
2022/05/31 08:37:01;;;;;;;3.50;2.20;;;20.80;99.90;;;;;;4971536;28;20231;-68
2022/05/31 08:39:28;;;;;;;3.08;2.20;;;20.70;99.90;;;;;;5014201;28;20208;-63
2022/05/31 08:42:06;;;;;;;2.85;2.00;;;21.10;99.90;;;;;;5012977;28;20227;-61
2022/05/31 08:44:59;;;;;;;2.90;2.08;;;21.70;99.90;;;;;;5014026;28;20214;-62
2022/05/31 08:47:38;;;;;;;3.42;2.50;;;21.70;98.10;;;;;;5015312;28;20180;-61
2022/05/31 08:53:26;;;;;;;4.65;2.10;;;22.20;96.50;;;;;;5014219;28;20230;-65
2022/05/31 08:59:09;;;;;;;2.88;2.10;;;21.00;94.30;;;;;;5014059;28;20234;-61
2022/05/31 09:01:45;;;;;;;2.38;2.05;;;21.20;96.70;;;;;;5014338;28;20196;-79
2022/05/31 09:04:19;;;;;;;2.10;1.90;;;21.20;94.90;;;;;;5023379;28;20648;-64
2022/05/31 09:06:50;;;;;;;3.83;2.13;;;21.50;93.60;;;;;;5000151;28;20568;-62
2022/05/31 09:09:26;;;;;;;2.65;2.00;;;21.90;93.00;;;;;;5014098;28;20302;-76
2022/05/31 09:12:01;;;;;;;2.90;1.88;;;22.10;91.70;;;;;;5013501;28;20211;-61
2022/05/31 09:14:40;;;;;;;2.95;1.98;;;22.60;91.60;;;;;;5014706;28;20235;-81
2022/05/31 09:17:27;;;;;;;3.25;2.00;;;22.30;91.00;;;;;;5030072;28;20199;-64
2022/05/31 09:20:10;;;;;;;2.67;2.22;;;22.00;90.80;;;;;;5018679;28;20263;-87
2022/05/31 09:22:43;;;;;;;3.60;2.00;;;21.50;91.80;;;;;;5014606;28;20243;-73
2022/05/31 09:25:10;;;;;;;2.70;1.97;;;21.10;92.60;;;;;;5017909;28;20220;-81
2022/05/31 09:27:46;;;;;;;2.10;1.90;;;20.80;93.20;;;;;;5014164;28;20204;-75
2022/05/31 09:30:35;;;;;;;2.77;1.90;;;20.80;92.20;;;;;;5013172;28;20239;-61
2022/05/31 09:33:11;;;;;;;1.83;1.70;;;20.00;93.30;;;;;;5014723;28;20283;-68
2022/05/31 09:35:42;;;;;;;2.83;1.80;;;19.80;94.20;;;;;;5016684;28;20312;-75
2022/05/31 09:38:46;;;;;;;2.77;1.97;;;20.00;94.90;;;;;;5018712;28;20597;-64
2022/05/31 09:41:26;;;;;;;3.90;1.70;;;20.00;95.00;;;;;;5022993;28;20227;-70
2022/05/31 09:44:17;;;;;;;1.70;1.60;;;20.20;93.40;;;;;;5018602;28;20299;-65
2022/05/31 09:47:02;;;;;;;2.63;1.80;;;20.20;93.20;;;;;;5017961;28;20610;-61
2022/05/31 09:49:50;;;;;;;5.00;1.80;;;19.90;93.20;;;;;;5016952;28;20599;-60
2022/05/31 09:52:29;;;;;;;2.57;1.73;;;19.90;93.30;;;;;;4996229;28;20255;-67
2022/05/31 09:58:07;;;;;;;2.33;1.80;;;19.70;93.00;;;;;;5012818;28;20214;-67
2022/05/31 10:00:36;;;;;;;2.77;1.70;;;19.60;93.70;;;;;;5012625;28;20637;-60
2022/05/31 10:03:14;;;;;;;3.30;1.67;;;19.90;93.40;;;;;;5013188;28;20540;-60
2022/05/31 10:05:43;;;;;;;3.20;1.70;;;20.50;93.30;;;;;;5013852;28;20198;-80
2022/05/31 10:08:32;;;;;;;3.50;1.77;;;21.10;91.60;;;;;;5012866;28;20287;-64
2022/05/31 10:11:05;;;;;;;1.70;1.60;;;21.40;90.90;;;;;;5012464;28;20219;-60
2022/05/31 10:13:37;;;;;;;3.63;1.70;;;21.70;90.10;;;;;;5012381;28;20230;-60
2022/05/31 10:16:19;;;;;;;2.30;1.60;;;21.40;85.60;;;;;;5012656;28;20662;-66
2022/05/31 10:18:52;;;;;;;2.23;1.73;;;21.60;85.70;;;;;;5012446;28;20196;-60
2022/05/31 10:21:30;;;;;;;3.47;1.80;;;21.90;90.20;;;;;;5012081;28;20231;-69
2022/05/31 10:24:07;;;;;;;1.70;1.60;;;22.40;84.60;;;;;;5012020;28;20228;-68
2022/05/31 10:26:38;;;;;;;2.17;1.90;;;22.30;84.60;;;;;;5012328;28;20237;-61
2022/05/31 10:29:15;;;;;;;4.50;2.00;;;22.00;83.70;;;;;;5014055;28;20287;-83
2022/05/31 10:31:46;;;;;;;3.60;1.95;;;22.10;83.90;;;;;;5012164;28;20274;-75
2022/05/31 10:34:36;;;;;;;2.03;1.80;;;22.10;85.10;;;;;;5013420;28;20207;-73
2022/05/31 10:37:07;;;;;;;2.33;1.70;;;21.40;83.30;;;;;;5012044;28;20638;-62
2022/05/31 10:39:37;;;;;;;3.00;1.90;;;21.00;86.10;;;;;;5012397;28;20283;-76
2022/05/31 10:42:13;;;;;;;2.17;1.90;;;21.30;87.50;;;;;;5012336;28;20672;-61
2022/05/31 10:44:50;;;;;;;2.33;1.87;;;21.70;86.30;;;;;;5011987;28;20242;-61
2022/05/31 10:47:20;;;;;;;4.07;1.90;;;21.00;85.80;;;;;;5012160;28;20208;-65
2022/05/31 10:49:49;;;;;;;3.47;1.87;;;21.40;83.90;;;;;;5012410;28;20290;-61
2022/05/31 10:52:41;;;;;;;2.13;1.67;;;21.70;83.00;;;;;;5011833;28;20768;-61
2022/05/31 10:55:27;;;;;;;2.03;1.80;;;23.00;82.60;;;;;;5012889;28;20210;-69
2022/05/31 10:58:17;;;;;;;2.83;2.10;;;24.30;79.00;;;;;;5012520;28;20239;-73
2022/05/31 11:01:01;;;;;;;2.30;1.85;;;24.20;77.10;;;;;;5013140;28;20200;-76
2022/05/31 11:03:47;;;;;;;2.88;2.15;;;23.90;77.50;;;;;;5012207;28;20589;-71
2022/05/31 11:06:27;;;;;;;2.35;2.03;;;24.40;83.60;;;;;;5015622;28;20195;-65
2022/05/31 11:12:07;;;;;;;2.30;2.00;;;25.00;82.30;;;;;;5034801;28;20281;-63
2022/05/31 11:15:00;;;;;;;2.50;1.80;;;23.60;79.30;;;;;;5035303;28;20219;-63
2022/05/31 11:17:52;;;;;;;2.42;1.95;;;23.90;82.80;;;;;;4959215;28;20237;-64
2022/05/31 11:20:32;;;;;;;2.15;1.85;;;23.90;81.50;;;;;;4974826;28;20666;-63
2022/05/31 11:23:21;;;;;;;3.17;1.80;;;24.30;86.00;;;;;;4959155;28;20220;-61
2022/05/31 11:26:25;;;;;;;3.25;2.10;;;24.80;81.20;;;;;;4975138;28;20243;-64
2022/05/31 11:29:45;;;;;;;2.47;1.83;;;24.70;74.80;;;;;;4975014;28;20213;-62
2022/05/31 11:32:15;;;;;;;2.63;2.10;;;25.00;76.60;;;;;;4958895;28;20257;-64
2022/05/31 11:34:45;;;;;;;2.03;1.60;;;25.50;78.10;;;;;;4974743;28;20197;-64
2022/05/31 11:37:29;;;;;;;2.58;1.85;;;25.80;74.00;;;;;;4974631;28;20608;-63
2022/05/31 11:40:13;;;;;;;2.20;1.70;;;26.00;67.60;;;;;;4959002;28;20209;-65
2022/05/31 11:43:05;;;;;;;2.65;1.90;;;26.00;69.30;;;;;;4975064;28;20264;-63
2022/05/31 11:45:38;;;;;;;1.95;1.73;;;25.60;67.90;;;;;;4974878;28;20244;-62
2022/05/31 11:48:05;;;;;;;2.92;1.75;;;25.40;65.50;;;;;;4974939;28;20292;-62
2022/05/31 11:50:48;;;;;;;3.20;1.73;;;25.80;66.30;;;;;;4974772;28;20201;-62
2022/05/31 11:53:40;;;;;;;1.58;1.48;;;25.30;67.40;;;;;;4974678;28;20209;-63
2022/05/31 11:56:32;;;;;;;2.20;1.70;;;26.00;72.80;;;;;;5034374;28;20209;-61
2022/05/31 11:59:01;;;;;;;1.88;1.60;;;25.60;60.30;;;;;;5034552;28;20685;-63
2022/05/31 12:01:41;;;;;;;2.25;1.70;;;24.50;60.00;;;;;;5034456;28;20262;-63
2022/05/31 12:04:09;;;;;;;2.03;1.80;;;23.80;66.10;;;;;;5034708;28;20233;-61
2022/05/31 12:06:38;;;;;;;3.28;1.85;;;23.40;72.50;;;;;;5034291;28;20249;-62
2022/05/31 12:09:14;;;;;;;2.33;1.70;;;23.00;67.30;;;;;;5035671;28;20216;-61
2022/05/31 12:11:57;;;;;;;2.67;1.83;;;23.00;73.20;;;;;;5034395;28;20226;-63
2022/05/31 12:14:26;;;;;;;1.83;1.63;;;23.40;69.30;;;;;;5034391;28;20195;-61
2022/05/31 12:16:54;;;;;;;2.92;1.83;;;23.90;67.60;;;;;;5032931;28;20298;-61
2022/05/31 12:19:27;;;;;;;3.00;1.52;;;24.20;68.30;;;;;;5034166;28;20238;-62
2022/05/31 12:22:04;;;;;;;3.35;1.67;;;23.60;64.60;;;;;;5034383;28;20208;-63
2022/05/31 12:24:43;;;;;;;2.23;1.60;;;24.00;67.50;;;;;;5033816;28;20223;-63
2022/05/31 12:27:21;;;;;;;1.83;1.60;;;23.50;64.70;;;;;;5033500;28;20183;-61
2022/05/31 12:30:21;;;;;;;3.08;1.80;;;23.40;65.40;;;;;;5034003;28;20294;-61
2022/05/31 12:32:52;;;;;;;4.10;1.70;;;23.30;68.60;;;;;;5034746;28;20215;-62
2022/05/31 12:35:48;;;;;;;4.07;1.67;;;23.60;66.20;;;;;;5033783;28;20530;-64
2022/05/31 12:38:15;;;;;;;3.73;1.70;;;24.20;65.80;;;;;;4957718;28;20742;-64
2022/05/31 12:40:51;;;;;;;1.65;1.50;;;24.50;63.70;;;;;;4957808;28;20340;-65
2022/05/31 12:43:42;;;;;;;1.90;1.70;;;24.70;64.50;;;;;;4958076;28;20300;-62
2022/05/31 12:46:26;;;;;;;3.30;1.90;;;25.30;62.40;;;;;;4974019;28;20201;-61
2022/05/31 12:48:59;;;;;;;1.92;1.50;;;25.60;61.50;;;;;;4973787;28;20647;-63
2022/05/31 12:51:29;;;;;;;3.13;1.75;;;25.90;60.90;;;;;;4957575;28;20360;-63
2022/05/31 12:54:00;;;;;;;2.42;1.70;;;26.20;58.70;;;;;;4957091;28;20235;-61
2022/05/31 12:56:34;;;;;;;2.67;1.60;;;26.70;58.70;;;;;;4957652;28;20648;-70
2022/05/31 12:59:06;;;;;;;3.15;1.80;;;26.90;56.80;;;;;;4973609;28;20197;-63
2022/05/31 13:01:37;;;;;;;1.98;1.60;;;27.10;54.90;;;;;;4973729;28;20194;-62
2022/05/31 13:04:28;;;;;;;3.65;1.60;;;26.90;55.80;;;;;;4957213;28;20212;-63
2022/05/31 13:07:13;;;;;;;1.75;1.52;;;27.50;54.90;;;;;;4973134;28;20236;-63
2022/05/31 13:09:49;;;;;;;1.80;1.70;;;27.60;54.10;;;;;;4973527;28;20212;-69
2022/05/31 13:21:03;;;;;;;2.10;1.70;;;26.10;55.80;;;;;;5032831;28;20255;-62
2022/05/31 13:23:38;;;;;;;3.10;1.88;;;25.90;54.10;;;;;;5033175;28;20249;-62
2022/05/31 13:26:08;;;;;;;2.60;1.33;;;26.40;54.40;;;;;;5032770;28;20226;-63
2022/05/31 13:28:50;;;;;;;2.75;1.50;;;27.00;53.20;;;;;;5032512;28;20218;-63
2022/05/31 13:31:21;;;;;;;1.90;1.48;;;26.90;51.20;;;;;;5032851;28;20290;-64
2022/05/31 13:33:58;;;;;;;1.65;1.40;;;27.00;51.80;;;;;;5016414;28;20676;-79
2022/05/31 13:36:28;;;;;;;3.22;2.05;;;27.10;49.60;;;;;;5032558;28;20245;-71
2022/05/31 13:39:09;;;;;;;4.97;1.50;;;26.30;51.40;;;;;;5032627;28;20202;-77
2022/05/31 13:41:59;;;;;;;2.72;1.50;;;26.70;50.90;;;;;;5032665;28;20698;-73
2022/05/31 13:44:37;;;;;;;2.13;1.75;;;26.40;50.50;;;;;;5032927;28;20249;-63
2022/05/31 13:47:06;;;;;;;4.43;1.60;;;26.70;49.70;;;;;;5032736;28;20314;-64
2022/05/31 13:49:38;;;;;;;1.90;1.70;;;26.60;49.70;;;;;;5032203;28;20245;-63
2022/05/31 13:52:24;;;;;;;2.45;1.90;;;26.30;50.50;;;;;;5032256;28;20298;-63
2022/05/31 13:54:54;;;;;;;3.00;1.80;;;26.20;50.10;;;;;;5031988;28;20195;-64